createdAt,value
2023-04-28T00:01:19.912Z,98590.09
2023-04-28T00:03:21.467Z,98590.38
2023-04-28T00:05:23.247Z,98583.75
2023-04-28T00:07:25.248Z,98581.81
2023-04-28T00:09:26.725Z,98583.47
2023-04-28T00:11:28.218Z,98582.66
2023-04-28T00:13:29.662Z,98578.78
2023-04-28T00:15:31.088Z,98575.72
2023-04-28T00:17:32.580Z,98583.69
2023-04-28T00:19:34.644Z,98574.31
2023-04-28T00:21:36.128Z,98570.47
2023-04-28T00:23:37.812Z,98566.88
2023-04-28T00:25:39.496Z,98562.97
2023-04-28T00:27:40.965Z,98561.06
2023-04-28T00:29:42.404Z,98566.28
2023-04-28T00:31:44.649Z,98557.19
2023-04-28T00:33:46.157Z,98551.38
2023-04-28T00:35:47.621Z,98546.16
2023-04-28T00:37:49.456Z,98545.34
2023-04-28T00:39:57.511Z,98545.34
2023-04-28T00:41:59.207Z,98546.44
2023-04-28T00:44:00.935Z,98543.69
2023-04-28T00:46:02.846Z,98539.00
2023-04-28T00:48:04.508Z,98539.00
2023-04-28T00:50:06.627Z,98537.09
2023-04-28T00:52:08.438Z,98542.59
2023-04-28T00:54:14.103Z,98535.16
2023-04-28T00:56:15.994Z,98535.16
2023-04-28T00:58:17.445Z,98524.13
2023-04-28T01:00:19.027Z,98524.13
2023-04-28T01:02:20.615Z,98526.88
2023-04-28T01:04:23.205Z,98510.03
2023-04-28T01:06:25.058Z,98517.22
2023-04-28T01:08:31.163Z,98503.44
2023-04-28T01:10:33.224Z,98513.31
2023-04-28T01:12:41.750Z,98504.78
2023-04-28T01:14:43.393Z,98494.56
2023-04-28T01:16:45.042Z,98507.53
2023-04-28T01:18:48.309Z,98497.00
2023-04-28T01:20:50.334Z,98497.84
2023-04-28T01:22:52.108Z,98494.78
2023-04-28T01:24:54.101Z,98496.94
2023-04-28T01:26:55.643Z,98498.63
2023-04-28T01:28:57.566Z,98493.63
2023-04-28T01:30:59.457Z,98487.28
2023-04-28T01:33:02.393Z,98486.97
2023-04-28T01:35:04.290Z,98491.38
2023-04-28T01:37:09.218Z,98485.88
2023-04-28T01:39:12.338Z,98488.31
2023-04-28T01:41:16.132Z,98487.53
2023-04-28T01:43:17.603Z,98490.81
2023-04-28T01:45:19.117Z,98488.03
2023-04-28T01:47:20.595Z,98474.25
2023-04-28T01:49:22.298Z,98471.50
2023-04-28T01:51:23.705Z,98478.63
2023-04-28T01:53:25.369Z,98479.78
2023-04-28T01:55:27.348Z,98475.09
2023-04-28T01:57:29.234Z,98473.13
2023-04-28T01:59:32.232Z,98473.44
2023-04-28T02:01:33.747Z,98470.69
2023-04-28T02:03:35.966Z,98478.63
2023-04-28T02:05:38.440Z,98470.38
2023-04-28T02:07:39.976Z,98460.16
2023-04-28T02:09:41.492Z,98462.66
2023-04-28T02:11:42.937Z,98464.25
2023-04-28T02:13:44.507Z,98462.34
2023-04-28T02:15:46.488Z,98452.97
2023-04-28T02:17:48.086Z,98451.00
2023-04-28T02:19:54.862Z,98456.50
2023-04-28T02:21:56.347Z,98453.47
2023-04-28T02:23:57.748Z,98465.00
2023-04-28T02:26:03.660Z,98463.09
2023-04-28T02:28:05.075Z,98460.00
2023-04-28T02:30:09.752Z,98455.31
2023-04-28T02:32:11.735Z,98454.22
2023-04-28T02:34:14.495Z,98455.84
2023-04-28T02:36:16.230Z,98453.06
2023-04-28T02:38:17.710Z,98457.47
2023-04-28T02:40:19.330Z,98455.56
2023-04-28T02:42:21.028Z,98448.06
2023-04-28T02:44:22.672Z,98456.06
2023-04-28T02:46:24.393Z,98457.41
2023-04-28T02:48:26.428Z,98453.50
2023-04-28T02:50:28.168Z,98443.31
2023-04-28T02:52:29.656Z,98443.81
2023-04-28T02:54:33.001Z,98437.50
2023-04-28T02:56:37.000Z,98436.88
2023-04-28T02:58:39.518Z,98429.44
2023-04-28T03:00:41.231Z,98426.41
2023-04-28T03:02:42.739Z,98427.19
2023-04-28T03:04:44.289Z,98429.66
2023-04-28T03:06:46.033Z,98418.63
2023-04-28T03:08:47.589Z,98411.69
2023-04-28T03:10:49.059Z,98418.03
2023-04-28T03:12:50.805Z,98408.63
2023-04-28T03:14:53.244Z,98405.84
2023-04-28T03:16:54.790Z,98402.81
2023-04-28T03:18:56.226Z,98389.53
2023-04-28T03:20:57.679Z,98404.16
2023-04-28T03:23:02.233Z,98397.50
2023-04-28T03:25:03.895Z,98389.72
2023-04-28T03:27:09.060Z,98390.56
2023-04-28T03:29:11.686Z,98388.63
2023-04-28T03:31:13.291Z,98381.16
2023-04-28T03:33:14.773Z,98393.03
2023-04-28T03:35:16.380Z,98380.84
2023-04-28T03:37:18.615Z,98372.28
2023-04-28T03:39:20.105Z,98375.06
2023-04-28T03:41:21.702Z,98361.25
2023-04-28T03:43:41.844Z,98366.78
2023-04-28T03:46:06.765Z,98384.66
2023-04-28T03:48:08.639Z,98387.41
2023-04-28T03:50:11.415Z,98384.66
2023-04-28T03:52:13.131Z,98376.91
2023-04-28T03:54:14.775Z,98376.06
2023-04-28T03:56:16.741Z,98369.72
2023-04-28T03:58:18.447Z,98368.63
2023-04-28T04:00:20.321Z,98372.47
2023-04-28T04:02:23.951Z,98365.03
2023-04-28T04:04:25.976Z,98368.63
2023-04-28T04:06:28.173Z,98370.25
2023-04-28T04:08:30.192Z,98373.03
2023-04-28T04:10:31.742Z,98356.47
2023-04-28T04:12:33.349Z,98356.97
2023-04-28T04:14:35.147Z,98368.00
2023-04-28T04:16:37.190Z,98375.16
2023-04-28T04:18:39.991Z,98373.22
2023-04-28T04:20:57.052Z,98367.69
2023-04-28T04:22:58.685Z,98365.75
2023-04-28T04:25:00.219Z,98372.94
2023-04-28T04:27:01.724Z,98363.50
2023-04-28T04:29:07.862Z,98361.56
2023-04-28T04:31:09.501Z,98364.84
2023-04-28T04:33:11.298Z,98350.75
2023-04-28T04:35:12.803Z,98357.91
2023-04-28T04:37:14.368Z,98367.00
2023-04-28T04:39:22.205Z,98363.91
2023-04-28T04:41:23.885Z,98364.47
2023-04-28T04:43:33.284Z,98362.50
2023-04-28T04:45:35.792Z,98363.31
2023-04-28T04:47:37.498Z,98364.66
2023-04-28T04:49:39.078Z,98351.66
2023-04-28T04:51:40.604Z,98356.38
2023-04-28T04:53:42.260Z,98362.38
2023-04-28T04:55:44.314Z,98358.53
2023-04-28T04:57:46.474Z,98353.50
2023-04-28T04:59:57.005Z,98367.00
2023-04-28T05:01:58.657Z,98363.94
2023-04-28T05:04:00.700Z,98365.88
2023-04-28T05:06:03.666Z,98359.25
2023-04-28T05:08:13.493Z,98371.63
2023-04-28T05:10:40.901Z,98368.03
2023-04-28T05:16:18.141Z,98368.03
2023-04-28T05:18:44.469Z,98359.75
2023-04-28T05:23:38.052Z,98362.19
2023-04-28T05:25:49.092Z,98364.66
2023-04-28T05:31:15.197Z,98356.16
2023-04-28T05:33:26.140Z,98369.69
2023-04-28T05:35:28.132Z,98356.38
2023-04-28T05:37:31.799Z,98356.38
2023-04-28T05:39:48.241Z,98346.97
2023-04-28T05:41:52.786Z,98355.25
2023-04-28T05:43:54.340Z,98351.06
2023-04-28T05:45:56.316Z,98361.81
2023-04-28T05:47:58.140Z,98351.63
2023-04-28T05:49:59.627Z,98354.38
2023-04-28T05:52:02.098Z,98350.78
2023-04-28T05:54:03.736Z,98348.84
2023-04-28T05:56:08.195Z,98346.88
2023-04-28T05:58:09.873Z,98344.66
2023-04-28T06:00:13.517Z,98344.94
2023-04-28T06:02:15.090Z,98339.44
2023-04-28T06:04:17.320Z,98341.38
2023-04-28T06:06:19.504Z,98344.94
2023-04-28T06:08:21.364Z,98341.91
2023-04-28T06:10:23.638Z,98352.63
2023-04-28T06:12:25.109Z,98349.03
2023-04-28T06:14:26.916Z,98351.50
2023-04-28T06:16:28.804Z,98346.78
2023-04-28T06:18:32.840Z,98344.84
2023-04-28T06:20:36.099Z,98355.38
2023-04-28T06:22:38.540Z,98351.50
2023-04-28T06:24:41.709Z,98353.44
2023-04-28T06:26:45.844Z,98349.03
2023-04-28T06:28:47.679Z,98345.44
2023-04-28T06:30:49.273Z,98346.59
2023-04-28T06:32:51.622Z,98344.13
2023-04-28T06:34:53.265Z,98348.03
2023-04-28T06:36:56.158Z,98346.38
2023-04-28T06:38:58.847Z,98353.31
2023-04-28T06:41:00.353Z,98344.75
2023-04-28T06:43:03.387Z,98347.78
2023-04-28T06:45:10.931Z,98336.47
2023-04-28T06:47:12.789Z,98324.88
2023-04-28T06:49:14.443Z,98325.94
2023-04-28T06:51:17.043Z,98327.06
2023-04-28T06:53:18.577Z,98333.41
2023-04-28T06:55:20.130Z,98330.31
2023-04-28T06:57:21.852Z,98331.16
2023-04-28T06:59:24.166Z,98323.69
2023-04-28T07:01:25.795Z,98320.59
2023-04-28T07:03:27.829Z,98319.00
2023-04-28T07:05:29.437Z,98315.09
2023-04-28T07:07:31.240Z,98315.09
2023-04-28T07:09:32.704Z,98319.00
2023-04-28T07:11:34.115Z,98326.44
2023-04-28T07:13:35.640Z,98331.66
2023-04-28T07:15:37.352Z,98326.44
2023-04-28T07:17:38.972Z,98328.38
2023-04-28T07:19:40.952Z,98323.19
2023-04-28T07:21:42.491Z,98332.28
2023-04-28T07:23:44.222Z,98328.72
2023-04-28T07:25:46.207Z,98336.16
2023-04-28T07:27:47.712Z,98345.56
2023-04-28T07:29:49.306Z,98346.38
2023-04-28T07:31:50.806Z,98342.00
2023-04-28T07:33:52.337Z,98344.19
2023-04-28T07:35:54.192Z,98337.16
2023-04-28T07:37:56.037Z,98341.03
2023-04-28T07:39:57.507Z,98342.47
2023-04-28T07:41:59.039Z,98337.25
2023-04-28T07:44:00.555Z,98343.91
2023-04-28T07:46:02.147Z,98353.59
2023-04-28T07:48:04.143Z,98359.44
2023-04-28T07:50:06.948Z,98361.69
2023-04-28T07:52:09.782Z,98366.69
2023-04-28T07:54:11.374Z,98373.34
2023-04-28T07:56:13.063Z,98373.13
2023-04-28T07:58:14.914Z,98367.91
2023-04-28T08:00:18.082Z,98379.78
2023-04-28T08:02:20.548Z,98367.41
2023-04-28T08:04:22.639Z,98371.28
2023-04-28T08:06:24.438Z,98372.38
2023-04-28T08:08:26.358Z,98366.69
2023-04-28T08:10:28.433Z,98362.78
2023-04-28T08:12:30.147Z,98367.50
2023-04-28T08:14:31.730Z,98354.31
2023-04-28T08:16:34.496Z,98351.03
2023-04-28T08:18:36.084Z,98346.13
2023-04-28T08:20:37.492Z,98350.00
2023-04-28T08:22:38.902Z,98353.09
2023-04-28T08:24:40.632Z,98341.81
2023-04-28T08:26:42.378Z,98341.59
2023-04-28T08:28:44.367Z,98338.34
2023-04-28T08:30:46.139Z,98328.72
2023-04-28T08:32:47.935Z,98327.41
2023-04-28T08:34:50.008Z,98313.94
2023-04-28T08:36:51.886Z,98315.34
2023-04-28T08:38:53.616Z,98310.94
2023-04-28T08:40:55.037Z,98315.13
2023-04-28T08:42:56.455Z,98309.94
2023-04-28T08:44:59.812Z,98313.78
2023-04-28T08:47:04.006Z,98305.84
2023-04-28T08:49:06.486Z,98315.72
2023-04-28T08:51:08.351Z,98313.78
2023-04-28T08:53:13.330Z,98311.03
2023-04-28T08:55:15.701Z,98314.63
2023-04-28T08:57:18.573Z,98318.19
2023-04-28T08:59:20.969Z,98325.34
2023-04-28T09:01:23.628Z,98320.66
2023-04-28T09:03:26.835Z,98332.50
2023-04-28T09:05:28.597Z,98349.03
2023-04-28T09:07:30.317Z,98340.78
2023-04-28T09:09:35.549Z,98329.41
2023-04-28T09:11:51.269Z,98331.66
2023-04-28T09:13:52.921Z,98328.91
2023-04-28T09:16:00.361Z,98313.19
2023-04-28T09:18:03.884Z,98308.50
2023-04-28T09:20:20.392Z,98309.34
2023-04-28T09:22:28.300Z,98311.78
2023-04-28T09:24:34.022Z,98323.63
2023-04-28T09:26:50.614Z,98318.41
2023-04-28T09:28:52.512Z,98323.63
2023-04-28T09:30:54.782Z,98311.44
2023-04-28T09:33:07.648Z,98315.03
2023-04-28T09:35:10.618Z,98321.06
2023-04-28T09:37:22.432Z,98321.06
2023-04-28T09:39:36.389Z,98306.16
2023-04-28T09:41:45.399Z,98299.53
2023-04-28T09:43:46.910Z,98295.94
2023-04-28T09:45:48.605Z,98305.34
2023-04-28T09:47:50.637Z,98314.94
2023-04-28T09:50:00.434Z,98316.88
2023-04-28T09:52:13.323Z,98303.63
2023-04-28T09:54:16.081Z,98296.16
2023-04-28T09:56:21.083Z,98284.00
2023-04-28T09:58:24.646Z,98280.94
2023-04-28T10:00:26.754Z,98277.06
2023-04-28T10:04:34.917Z,98268.19
2023-04-28T10:06:36.903Z,98266.25
2023-04-28T10:08:40.517Z,98261.00
2023-04-28T10:10:43.445Z,98267.03
2023-04-28T10:12:45.883Z,98273.69
2023-04-28T10:14:54.309Z,98260.19
2023-04-28T10:16:57.360Z,98263.78
2023-04-28T10:18:59.750Z,98275.13
2023-04-28T10:21:06.065Z,98273.47
2023-04-28T10:23:26.175Z,98272.16
2023-04-28T10:25:31.263Z,98273.56
2023-04-28T10:27:35.729Z,98269.19
2023-04-28T10:29:37.652Z,98259.59
2023-04-28T10:31:39.193Z,98272.25
2023-04-28T10:33:41.930Z,98276.44
2023-04-28T10:35:47.727Z,98277.25
2023-04-28T10:38:09.090Z,98265.41
2023-04-28T10:40:35.968Z,98259.88
2023-04-28T10:42:56.773Z,98254.97
2023-04-28T10:44:58.280Z,98253.88
2023-04-28T10:47:10.789Z,98261.63
2023-04-28T10:49:12.317Z,98258.06
2023-04-28T10:51:16.667Z,98263.88
2023-04-28T10:53:18.161Z,98268.56
2023-04-28T10:55:39.676Z,98273.88
2023-04-28T10:57:42.901Z,98273.34
2023-04-28T10:59:44.460Z,98275.59
2023-04-28T11:01:46.517Z,98278.16
2023-04-28T11:03:49.463Z,98275.69
2023-04-28T11:06:23.660Z,98270.56
2023-04-28T11:08:25.142Z,98272.81
2023-04-28T11:10:47.052Z,98275.06
2023-04-28T11:13:27.414Z,98279.22
2023-04-28T11:15:29.089Z,98275.56
2023-04-28T11:17:41.300Z,98268.63
2023-04-28T11:19:45.461Z,98267.72
2023-04-28T11:21:48.389Z,98266.00
2023-04-28T11:23:50.438Z,98276.13
2023-04-28T11:25:58.041Z,98276.63
2023-04-28T11:28:07.245Z,98270.50
2023-04-28T11:30:30.266Z,98261.81
2023-04-28T11:32:35.966Z,98259.78
2023-04-28T11:34:38.065Z,98268.28
2023-04-28T11:36:41.774Z,98270.13
2023-04-28T11:38:44.676Z,98266.75
2023-04-28T11:40:59.204Z,98263.88
2023-04-28T11:43:01.886Z,98261.03
2023-04-28T11:45:04.491Z,98258.66
2023-04-28T11:47:07.368Z,98259.72
2023-04-28T11:49:09.542Z,98263.97
2023-04-28T11:51:26.446Z,98264.38
2023-04-28T11:53:44.670Z,98263.16
2023-04-28T11:55:46.183Z,98259.69
2023-04-28T11:57:47.787Z,98263.97
2023-04-28T11:59:50.448Z,98261.09
2023-04-28T12:02:01.681Z,98262.13
2023-04-28T12:04:03.968Z,98273.03
2023-04-28T12:06:05.567Z,98265.16
2023-04-28T12:08:07.303Z,98263.09
2023-04-28T12:10:15.699Z,98260.00
2023-04-28T12:12:45.208Z,98255.50
2023-04-28T12:14:55.985Z,98252.63
2023-04-28T12:16:58.498Z,98251.34
2023-04-28T12:19:06.614Z,98250.75
2023-04-28T12:21:21.316Z,98247.03
2023-04-28T12:23:36.361Z,98246.06
2023-04-28T12:25:45.816Z,98261.41
2023-04-28T12:28:02.697Z,98248.59
2023-04-28T12:30:25.137Z,98245.69
2023-04-28T12:32:40.593Z,98238.72
2023-04-28T12:34:44.175Z,98229.69
2023-04-28T12:36:46.476Z,98226.03
2023-04-28T12:38:49.323Z,98218.72
2023-04-28T12:40:51.276Z,98217.13
2023-04-28T12:42:53.045Z,98234.91
2023-04-28T12:44:54.573Z,98235.25
2023-04-28T12:46:56.312Z,98231.72
2023-04-28T12:48:57.852Z,98240.06
2023-04-28T12:50:59.307Z,98245.13
2023-04-28T12:53:00.846Z,98242.41
2023-04-28T12:55:03.118Z,98248.91
2023-04-28T12:57:05.426Z,98236.88
2023-04-28T12:59:07.342Z,98247.31
2023-04-28T13:01:09.898Z,98246.69
2023-04-28T13:03:11.553Z,98246.06
2023-04-28T13:05:14.679Z,98249.31
2023-04-28T13:07:16.239Z,98228.78
2023-04-28T13:09:17.984Z,98231.25
2023-04-28T13:11:22.938Z,98232.59
2023-04-28T13:13:24.774Z,98231.13
2023-04-28T13:15:27.195Z,98233.75
2023-04-28T13:17:28.657Z,98236.34
2023-04-28T13:19:31.642Z,98224.13
2023-04-28T13:21:33.204Z,98223.81
2023-04-28T13:23:34.677Z,98224.31
2023-04-28T13:25:36.096Z,98227.56
2023-04-28T13:27:38.080Z,98230.03
2023-04-28T13:29:40.988Z,98228.06
2023-04-28T13:31:42.536Z,98227.75
2023-04-28T13:33:44.122Z,98219.44
2023-04-28T13:35:45.819Z,98219.94
2023-04-28T13:37:47.312Z,98224.97
2023-04-28T13:39:48.762Z,98222.69
2023-04-28T13:41:50.536Z,98221.88
2023-04-28T13:43:52.022Z,98213.56
2023-04-28T13:45:53.541Z,98205.25
2023-04-28T13:47:55.327Z,98206.72
2023-04-28T13:49:56.958Z,98208.38
2023-04-28T13:51:58.485Z,98200.88
2023-04-28T13:53:59.983Z,98196.13
2023-04-28T13:56:01.779Z,98202.97
2023-04-28T13:58:05.038Z,98206.56
2023-04-28T14:00:07.031Z,98197.94
2023-04-28T14:02:11.509Z,98199.91
2023-04-28T14:04:13.297Z,98196.66
2023-04-28T14:06:14.961Z,98192.72
2023-04-28T14:08:18.810Z,98188.47
2023-04-28T14:10:22.892Z,98186.19
2023-04-28T14:12:24.332Z,98185.56
2023-04-28T14:14:26.324Z,98189.16
2023-04-28T14:16:28.087Z,98187.19
2023-04-28T14:18:29.779Z,98195.66
2023-04-28T14:20:31.332Z,98183.13
2023-04-28T14:22:33.035Z,98185.22
2023-04-28T14:24:34.811Z,98181.00
2023-04-28T14:26:36.723Z,98188.66
2023-04-28T14:28:38.520Z,98182.81
2023-04-28T14:30:39.956Z,98189.97
2023-04-28T14:32:41.463Z,98183.78
2023-04-28T14:34:43.259Z,98175.13
2023-04-28T14:36:44.700Z,98179.19
2023-04-28T14:38:46.157Z,98186.22
2023-04-28T14:40:47.640Z,98173.19
2023-04-28T14:42:49.282Z,98173.66
2023-04-28T14:44:52.728Z,98167.81
2023-04-28T14:46:56.194Z,98166.66
2023-04-28T14:48:58.547Z,98160.81
2023-04-28T14:51:00.007Z,98158.84
2023-04-28T14:53:05.657Z,98166.00
2023-04-28T14:55:07.606Z,98168.47
2023-04-28T14:57:09.056Z,98168.13
2023-04-28T14:59:11.584Z,98166.16
2023-04-28T15:01:13.290Z,98166.16
2023-04-28T15:03:15.507Z,98167.47
2023-04-28T15:05:17.276Z,98161.59
2023-04-28T15:07:19.362Z,98157.22
2023-04-28T15:09:20.849Z,98161.13
2023-04-28T15:11:22.316Z,98161.13
2023-04-28T15:13:25.345Z,98150.03
2023-04-28T15:15:27.440Z,98148.91
2023-04-28T15:17:28.848Z,98144.16
2023-04-28T15:19:31.258Z,98145.31
2023-04-28T15:21:32.964Z,98152.97
2023-04-28T15:23:34.687Z,98148.22
2023-04-28T15:25:36.104Z,98156.22
2023-04-28T15:27:37.874Z,98156.69
2023-04-28T15:29:40.039Z,98165.00
2023-04-28T15:31:41.592Z,98168.59
2023-04-28T15:33:43.044Z,98168.25
2023-04-28T15:35:45.028Z,98171.03
2023-04-28T15:37:52.102Z,98169.59
2023-04-28T15:39:54.083Z,98174.00
2023-04-28T15:41:56.131Z,98170.06
2023-04-28T15:43:57.663Z,98170.59
2023-04-28T15:46:00.785Z,98173.34
2023-04-28T15:48:02.343Z,98169.44
2023-04-28T15:50:03.976Z,98165.03
2023-04-28T15:52:05.690Z,98155.25
2023-04-28T15:54:07.310Z,98156.56
2023-04-28T15:56:08.784Z,98159.31
2023-04-28T15:58:10.866Z,98158.63
2023-04-28T16:00:14.294Z,98152.78
2023-04-28T16:02:15.811Z,98146.06
2023-04-28T16:04:17.814Z,98152.59
2023-04-28T16:06:19.431Z,98160.59
2023-04-28T16:08:24.198Z,98164.19
2023-04-28T16:10:25.646Z,98156.69
2023-04-28T16:12:27.330Z,98151.13
2023-04-28T16:14:28.802Z,98158.44
2023-04-28T16:16:30.589Z,98141.34
2023-04-28T16:18:33.029Z,98146.06
2023-04-28T16:20:34.504Z,98140.53
2023-04-28T16:22:36.891Z,98133.03
2023-04-28T16:24:42.544Z,98127.47
2023-04-28T16:26:44.026Z,98123.88
2023-04-28T16:28:45.929Z,98126.66
2023-04-28T16:30:47.624Z,98139.38
2023-04-28T16:32:49.282Z,98141.81
2023-04-28T16:34:51.798Z,98134.78
2023-04-28T16:36:53.481Z,98134.78
2023-04-28T16:38:55.083Z,98142.78
2023-04-28T16:40:56.819Z,98131.69
2023-04-28T16:42:58.261Z,98143.28
2023-04-28T16:44:59.947Z,98134.97
2023-04-28T16:47:02.078Z,98140.16
2023-04-28T16:49:03.671Z,98140.16
2023-04-28T16:51:08.451Z,98140.16
2023-04-28T16:53:10.650Z,98133.47
2023-04-28T16:55:12.501Z,98124.00
2023-04-28T16:57:13.931Z,98133.13
2023-04-28T16:59:15.491Z,98122.03
2023-04-28T17:01:16.944Z,98120.75
2023-04-28T17:03:21.035Z,98109.81
2023-04-28T17:05:25.517Z,98111.13
2023-04-28T17:07:29.374Z,98108.00
2023-04-28T17:09:35.802Z,98108.16
2023-04-28T17:11:40.282Z,98101.44
2023-04-28T17:13:42.065Z,98098.34
2023-04-28T17:15:43.679Z,98099.66
2023-04-28T17:17:51.088Z,98100.78
2023-04-28T17:19:53.411Z,98099.47
2023-04-28T17:21:55.622Z,98100.25
2023-04-28T17:23:58.442Z,98098.34
2023-04-28T17:25:59.834Z,98101.59
2023-04-28T17:28:01.225Z,98112.81
2023-04-28T17:30:03.322Z,98103.84
2023-04-28T17:32:05.006Z,98098.75
2023-04-28T17:34:06.614Z,98096.50
2023-04-28T17:36:08.662Z,98102.03
2023-04-28T17:38:10.117Z,98093.72
2023-04-28T17:40:12.044Z,98099.28
2023-04-28T17:42:13.550Z,98102.72
2023-04-28T17:44:14.969Z,98111.03
2023-04-28T17:46:17.206Z,98107.78
2023-04-28T17:48:18.721Z,98104.50
2023-04-28T17:50:20.225Z,98114.31
2023-04-28T17:52:22.446Z,98109.09
2023-04-28T17:54:23.986Z,98110.25
2023-04-28T17:56:25.685Z,98109.75
2023-04-28T17:58:27.250Z,98109.28
2023-04-28T18:00:28.707Z,98106.84
2023-04-28T18:02:31.531Z,98123.00
2023-04-28T18:04:33.206Z,98112.25
2023-04-28T18:06:34.736Z,98119.28
2023-04-28T18:08:37.146Z,98106.53
2023-04-28T18:10:38.623Z,98116.34
2023-04-28T18:12:40.079Z,98129.72
2023-04-28T18:14:44.112Z,98138.38
2023-04-28T18:16:46.501Z,98137.91
2023-04-28T18:18:48.497Z,98128.78
2023-04-28T18:20:49.912Z,98136.28
2023-04-28T18:22:51.537Z,98139.38
2023-04-28T18:24:53.004Z,98144.94
2023-04-28T18:26:54.424Z,98149.97
2023-04-28T18:28:55.994Z,98143.94
2023-04-28T18:30:57.963Z,98146.25
2023-04-28T18:32:59.551Z,98150.16
2023-04-28T18:35:01.088Z,98146.75
2023-04-28T18:37:02.623Z,98147.41
2023-04-28T18:39:06.199Z,98152.78
2023-04-28T18:41:14.140Z,98152.66
2023-04-28T18:43:16.071Z,98151.31
2023-04-28T18:45:17.512Z,98153.94
2023-04-28T18:47:19.598Z,98153.75
2023-04-28T18:49:21.705Z,98156.03
2023-04-28T18:51:23.170Z,98155.91
2023-04-28T18:53:24.698Z,98154.59
2023-04-28T18:55:26.169Z,98154.44
2023-04-28T18:57:27.673Z,98155.09
2023-04-28T18:59:30.113Z,98156.91
2023-04-28T19:01:31.828Z,98157.88
2023-04-28T19:03:33.814Z,98151.84
2023-04-28T19:05:35.556Z,98157.22
2023-04-28T19:07:37.957Z,98156.56
2023-04-28T19:09:39.396Z,98163.09
2023-04-28T19:11:40.813Z,98168.78
2023-04-28T19:13:44.633Z,98166.97
2023-04-28T19:15:46.180Z,98171.53
2023-04-28T19:17:48.204Z,98169.75
2023-04-28T19:19:49.785Z,98174.63
2023-04-28T19:21:52.470Z,98183.91
2023-04-28T19:23:54.020Z,98186.84
2023-04-28T19:25:56.882Z,98181.72
2023-04-28T19:27:58.440Z,98179.94
2023-04-28T19:30:01.339Z,98166.25
2023-04-28T19:32:02.849Z,98168.34
2023-04-28T19:34:04.517Z,98183.97
2023-04-28T19:36:07.446Z,98186.25
2023-04-28T19:38:09.520Z,98204.31
2023-04-28T19:40:11.648Z,98201.69
2023-04-28T19:42:13.213Z,98196.47
2023-04-28T19:44:14.705Z,98194.34
2023-04-28T19:46:16.957Z,98200.19
2023-04-28T19:48:19.325Z,98194.66
2023-04-28T19:50:21.021Z,98195.47
2023-04-28T19:52:23.276Z,98198.56
2023-04-28T19:54:25.109Z,98198.88
2023-04-28T19:56:26.934Z,98195.28
2023-04-28T19:58:28.793Z,98206.69
2023-04-28T20:00:32.285Z,98206.19
2023-04-28T20:02:34.193Z,98222.31
2023-04-28T20:04:36.712Z,98216.78
2023-04-28T20:06:38.338Z,98217.69
2023-04-28T20:08:39.759Z,98216.09
2023-04-28T20:10:41.348Z,98214.78
2023-04-28T20:12:42.871Z,98219.47
2023-04-28T20:14:44.645Z,98208.75
2023-04-28T20:16:46.140Z,98209.88
2023-04-28T20:18:47.637Z,98217.06
2023-04-28T20:20:52.503Z,98207.94
2023-04-28T20:22:54.000Z,98208.75
2023-04-28T20:24:57.661Z,98201.91
2023-04-28T20:26:59.096Z,98202.69
2023-04-28T20:29:00.567Z,98209.69
2023-04-28T20:31:02.005Z,98213.59
2023-04-28T20:33:03.690Z,98216.38
2023-04-28T20:35:06.165Z,98213.59
2023-04-28T20:37:08.254Z,98216.03
2023-04-28T20:39:11.261Z,98218.50
2023-04-28T20:41:12.795Z,98214.91
2023-04-28T20:43:14.537Z,98219.28
2023-04-28T20:45:16.642Z,98215.41
2023-04-28T20:47:18.106Z,98214.59
2023-04-28T20:49:19.533Z,98213.13
2023-04-28T20:51:21.120Z,98206.47
2023-04-28T20:53:22.654Z,98210.06
2023-04-28T20:55:24.280Z,98220.78
2023-04-28T20:57:25.726Z,98212.50
2023-04-28T20:59:27.413Z,98207.78
2023-04-28T21:01:29.031Z,98218.03
2023-04-28T21:03:30.821Z,98216.38
2023-04-28T21:05:32.396Z,98211.69
2023-04-28T21:07:33.927Z,98213.31
2023-04-28T21:09:37.394Z,98220.78
2023-04-28T21:11:38.786Z,98226.66
2023-04-28T21:13:42.637Z,98223.56
2023-04-28T21:15:44.142Z,98226.31
2023-04-28T21:17:45.734Z,98224.19
2023-04-28T21:19:47.216Z,98215.41
2023-04-28T21:21:48.657Z,98211.53
2023-04-28T21:23:50.143Z,98208.75
2023-04-28T21:25:52.183Z,98196.38
2023-04-28T21:27:53.677Z,98206.28
2023-04-28T21:29:55.151Z,98202.69
2023-04-28T21:31:56.696Z,98201.09
2023-04-28T21:33:58.184Z,98210.19
2023-04-28T21:36:05.459Z,98204.69
2023-04-28T21:38:07.798Z,98198.31
2023-04-28T21:40:10.276Z,98204.69
2023-04-28T21:42:11.801Z,98203.53
2023-04-28T21:44:13.356Z,98202.69
2023-04-28T21:46:15.054Z,98206.63
2023-04-28T21:48:17.065Z,98211.00
2023-04-28T21:50:18.875Z,98212.16
2023-04-28T21:52:20.316Z,98213.75
2023-04-28T21:54:21.794Z,98220.44
2023-04-28T21:56:23.242Z,98208.56
2023-04-28T21:58:24.809Z,98209.38
2023-04-28T22:00:27.883Z,98206.63
2023-04-28T22:02:29.788Z,98203.84
2023-04-28T22:04:31.586Z,98209.38
2023-04-28T22:06:33.160Z,98216.03
2023-04-28T22:08:34.593Z,98208.56
2023-04-28T22:10:36.466Z,98215.53
2023-04-28T22:12:38.525Z,98201.72
2023-04-28T22:14:41.564Z,98217.19
2023-04-28T22:16:43.206Z,98210.84
2023-04-28T22:18:44.728Z,98217.47
2023-04-28T22:20:46.795Z,98213.91
2023-04-28T22:22:48.201Z,98213.91
2023-04-28T22:24:50.195Z,98211.13
2023-04-28T22:26:51.875Z,98210.34
2023-04-28T22:28:54.184Z,98204.00
2023-04-28T22:30:55.660Z,98215.06
2023-04-28T22:32:57.229Z,98210.66
2023-04-28T22:34:58.731Z,98211.28
2023-04-28T22:37:00.165Z,98220.38
2023-04-28T22:39:01.583Z,98211.28
2023-04-28T22:41:03.317Z,98200.53
2023-04-28T22:43:04.744Z,98208.84
2023-04-28T22:45:06.868Z,98208.34
2023-04-28T22:47:08.437Z,98210.63
2023-04-28T22:49:09.883Z,98210.63
2023-04-28T22:51:11.290Z,98213.69
2023-04-28T22:53:12.719Z,98212.06
2023-04-28T22:55:14.280Z,98216.78
2023-04-28T22:57:15.872Z,98212.06
2023-04-28T22:59:17.563Z,98204.41
2023-04-28T23:01:19.043Z,98209.94
2023-04-28T23:03:21.473Z,98202.25
2023-04-28T23:05:25.055Z,98200.09
2023-04-28T23:07:26.727Z,98199.28
2023-04-28T23:09:28.557Z,98193.25
2023-04-28T23:11:30.013Z,98198.78
2023-04-28T23:13:31.596Z,98198.28
2023-04-28T23:15:33.001Z,98202.50
2023-04-28T23:17:34.570Z,98195.81
2023-04-28T23:19:38.772Z,98195.31
2023-04-28T23:21:40.258Z,98197.09
2023-04-28T23:23:41.945Z,98201.00
2023-04-28T23:25:43.735Z,98201.31
2023-04-28T23:27:45.355Z,98202.75
2023-04-28T23:29:46.805Z,98204.38
2023-04-28T23:31:52.516Z,98203.88
2023-04-28T23:33:54.099Z,98199.50
2023-04-28T23:35:55.663Z,98212.00
2023-04-28T23:37:57.455Z,98213.94
2023-04-28T23:39:59.054Z,98209.03
2023-04-28T23:42:01.751Z,98210.97
2023-04-28T23:44:03.566Z,98208.84
2023-04-28T23:46:06.685Z,98197.00
2023-04-28T23:48:08.332Z,98193.22
2023-04-28T23:50:10.178Z,98189.63
2023-04-28T23:52:11.576Z,98192.41
2023-04-28T23:54:13.094Z,98199.06
2023-04-28T23:56:14.651Z,98194.38
2023-04-28T23:58:16.326Z,98188.84
